Berens River Airport
CYBV : now visible

Airfield :











YOU CAN JOIN US ON...

 
LOGIN :

Register | Disclaimer

   EN    FR    IT 

 









Legend :    VFR   Marginal VFR   IFR   Intensive IFR   Very Intensive IFR
Visi :
Ceiling :
>= 8 km
>= 3000ft
5 to 8 km
1000 to 3000 ft
1500m to 5 km
500 to 1000 ft
800 to 1500m
200 to 500 ft
< 800m
< 200 ft
Symbols :   Thunderstorms  Fog  Heavy snow  Heavy precipitations  Wind > 20 kt






- Airport Elevation : 728 ft
- IATA code : YBV


CYBV - Berens River

CURRENT METAR :
  • 161600Z 29013G18KT 15SM FEW025 SCT050 BKN100 BKN220 19/14 A2967 RMK SC1SC3AC1CS1 SLP052 DENSITY ALT 1700FT

EXPIRED METARs :
  • 161500Z 29014G20KT 15SM FEW020 SCT060 BKN100 19/14 A2966 RMK SC1SC4AC1 SLP049 DENSITY ALT 1700FT
  • 161400Z 29017G22KT 15SM FEW020 FEW050 BKN100 BKN220 19/14 A2965 RMK SC1SC1AC3CS1 SLP044 DENSITY ALT 1700FT

TAF N/A
CZWG FIR / North America



MET'MAP, your aeronautical weather chart ! - Copyright ORBIFLY December 2007 - Disclaimer

ORBIFLY MET'MAP TEAM :

Programming & Development : Alexandra Zaïnal
Concept & original design : Baudouin d'Aumeries
Assistance for programming : Marc-Olivier Méhu
Technical & hardware support : Manuel Goepfert

Contact : metmap@orbifly.com




SOURCES & CREDITS :

   NOAA       Earth
Advisory